<?xml version='1.0' encoding='UTF-8'?><gpx version="1.1" creator="JPX - https://github.com/jenetics/jpx" xmlns="http://www.topografix.com/GPX/1/1"><trk><trkseg><trkpt lat="46.211546958715104" lon="10.161570146938727"><ele>423.0</ele><time>2026-05-04T05:50:22.007Z</time></trkpt><trkpt lat="46.211618338671" lon="10.161598633852543"><ele>423.0</ele><time>2026-05-04T05:50:35.994Z</time></trkpt><trkpt lat="46.211632646476296" lon="10.161698624761407"><ele>423.0</ele><time>2026-05-04T05:50:40.996Z</time></trkpt><trkpt lat="46.21166145062033" lon="10.161792250242309"><ele>423.0</ele><time>2026-05-04T05:50:45.997Z</time></trkpt><trkpt lat="46.21169524620926" lon="10.161884202932207"><ele>423.0</ele><time>2026-05-04T05:50:50.998Z</time></trkpt><trkpt lat="46.21173674183408" lon="10.161970994603541"><ele>423.0</ele><time>2026-05-04T05:50:57.999Z</time></trkpt><trkpt lat="46.21177543566348" lon="10.162060521832965"><ele>423.0</ele><time>2026-05-04T05:51:04.999Z</time></trkpt><trkpt lat="46.21181086526314" lon="10.162135977357266"><ele>423.0</ele><time>2026-05-04T05:51:10Z</time></trkpt><trkpt lat="46.21184932259434" lon="10.162211656647614"><ele>423.0</ele><time>2026-05-04T05:51:15Z</time></trkpt><trkpt lat="46.211903991594966" lon="10.162280082642738"><ele>423.0</ele><time>2026-05-04T05:51:20Z</time></trkpt><trkpt lat="46.21195581052821" lon="10.162367165599893"><ele>423.0</ele><time>2026-05-04T05:51:27Z</time></trkpt><trkpt lat="46.211998857141396" lon="10.162443643304089"><ele>423.0</ele><time>2026-05-04T05:51:31Z</time></trkpt><trkpt lat="46.21202921052445" lon="10.162524206896078"><ele>423.0</ele><time>2026-05-04T05:51:36Z</time></trkpt><trkpt lat="46.21207747592456" lon="10.162591595070014"><ele>423.0</ele><time>2026-05-04T05:51:42Z</time></trkpt><trkpt lat="46.21211814026942" lon="10.16266985107148"><ele>423.2857142857143</ele><time>2026-05-04T05:51:47Z</time></trkpt><trkpt lat="46.21214573855034" lon="10.162756576938822"><ele>423.5714285714286</ele><time>2026-05-04T05:51:53Z</time></trkpt><trkpt lat="46.21217423419473" lon="10.162843726995591"><ele>423.8571428571429</ele><time>2026-05-04T05:51:58Z</time></trkpt><trkpt lat="46.21223578720076" lon="10.162872426698396"><ele>424.1428571428571</ele><time>2026-05-04T05:52:02Z</time></trkpt><trkpt lat="46.21227220965505" lon="10.162952714832274"><ele>424.42857142857144</ele><time>2026-05-04T05:52:09Z</time></trkpt><trkpt lat="46.21232351996543" lon="10.163006262382229"><ele>424.7142857142857</ele><time>2026-05-04T05:52:15Z</time></trkpt><trkpt lat="46.21238766557396" lon="10.163006270472499"><ele>425.0</ele><time>2026-05-04T05:52:23Z</time></trkpt><trkpt lat="46.212437661312656" lon="10.163107531977408"><ele>425.0</ele><time>2026-05-04T05:52:29Z</time></trkpt><trkpt lat="46.21239041814179" lon="10.163012668229934"><ele>425.0</ele><time>2026-05-04T05:52:33.001Z</time></trkpt><trkpt lat="46.21238707344181" lon="10.16291871223702"><ele>425.0</ele><time>2026-05-04T05:52:37.001Z</time></trkpt><trkpt lat="46.2124329960321" lon="10.162848066581564"><ele>425.0</ele><time>2026-05-04T05:52:41Z</time></trkpt><trkpt lat="46.21246149420029" lon="10.16275931621512"><ele>425.0</ele><time>2026-05-04T05:52:44Z</time></trkpt><trkpt lat="46.21252501487861" lon="10.162771125466985"><ele>425.0</ele><time>2026-05-04T05:52:48Z</time></trkpt><trkpt lat="46.21256917910127" lon="10.162844590876288"><ele>425.0</ele><time>2026-05-04T05:52:52Z</time></trkpt><trkpt lat="46.2126132383942" lon="10.162930477518131"><ele>425.0</ele><time>2026-05-04T05:52:55Z</time></trkpt><trkpt lat="46.21264959625603" lon="10.163014048421521"><ele>425.0</ele><time>2026-05-04T05:52:59Z</time></trkpt><trkpt lat="46.21269676035636" lon="10.163085101641716"><ele>425.0</ele><time>2026-05-04T05:53:03Z</time></trkpt><trkpt lat="46.21272891664973" lon="10.163168823556694"><ele>425.0</ele><time>2026-05-04T05:53:09Z</time></trkpt><trkpt lat="46.212757210285616" lon="10.163264725412292"><ele>425.0</ele><time>2026-05-04T05:53:14Z</time></trkpt><trkpt lat="46.21279174582192" lon="10.163344048937395"><ele>425.0</ele><time>2026-05-04T05:53:18Z</time></trkpt><trkpt lat="46.21282703160855" lon="10.163429524424105"><ele>425.0</ele><time>2026-05-04T05:53:24Z</time></trkpt><trkpt lat="46.21285972937733" lon="10.163534760038912"><ele>425.1428571428571</ele><time>2026-05-04T05:53:30Z</time></trkpt><trkpt lat="46.2128958276675" lon="10.16361876484568"><ele>425.2857142857143</ele><time>2026-05-04T05:53:36Z</time></trkpt><trkpt lat="46.21291754484475" lon="10.163712311450109"><ele>425.42857142857144</ele><time>2026-05-04T05:53:41Z</time></trkpt><trkpt lat="46.21296768206266" lon="10.1637686691228"><ele>425.57142857142856</ele><time>2026-05-04T05:53:46Z</time></trkpt><trkpt lat="46.212983365849865" lon="10.163858577918788"><ele>425.7142857142857</ele><time>2026-05-04T05:53:51Z</time></trkpt><trkpt lat="46.21300379542073" lon="10.163961825687354"><ele>425.85714285714283</ele><time>2026-05-04T05:53:56Z</time></trkpt><trkpt lat="46.213002172172295" lon="10.164057442378022"><ele>426.0</ele><time>2026-05-04T05:54:04Z</time></trkpt><trkpt lat="46.21302812597312" lon="10.164159372912524"><ele>425.99999999999994</ele><time>2026-05-04T05:54:10Z</time></trkpt><trkpt lat="46.21305723309277" lon="10.164252287495936"><ele>426.0</ele><time>2026-05-04T05:54:15Z</time></trkpt><trkpt lat="46.21311309308345" lon="10.164326759562442"><ele>426.0</ele><time>2026-05-04T05:54:22Z</time></trkpt><trkpt lat="46.21314101201019" lon="10.164409747768868"><ele>426.0</ele><time>2026-05-04T05:54:28Z</time></trkpt><trkpt lat="46.21316550354338" lon="10.164494782564091"><ele>426.0</ele><time>2026-05-04T05:54:33Z</time></trkpt><trkpt lat="46.213186670941575" lon="10.16458329572379"><ele>425.99999999999994</ele><time>2026-05-04T05:54:38Z</time></trkpt><trkpt lat="46.21322661565186" lon="10.16468534969127"><ele>426.0</ele><time>2026-05-04T05:54:45Z</time></trkpt><trkpt lat="46.21324630853272" lon="10.16477356449918"><ele>425.99999999999994</ele><time>2026-05-04T05:54:49Z</time></trkpt><trkpt lat="46.21326845278388" lon="10.164862480233303"><ele>426.0</ele><time>2026-05-04T05:54:55Z</time></trkpt><trkpt lat="46.213304063714105" lon="10.164945835179847"><ele>426.0</ele><time>2026-05-04T05:55:01Z</time></trkpt><trkpt lat="46.213336162474754" lon="10.165037729342421"><ele>426.0</ele><time>2026-05-04T05:55:06Z</time></trkpt><trkpt lat="46.213354884137125" lon="10.16512721797918"><ele>426.0</ele><time>2026-05-04T05:55:11Z</time></trkpt><trkpt lat="46.21337755164882" lon="10.165218059939843"><ele>425.99999999999994</ele><time>2026-05-04T05:55:16Z</time></trkpt><trkpt lat="46.213406774026524" lon="10.165299310499249"><ele>426.0</ele><time>2026-05-04T05:55:21Z</time></trkpt><trkpt lat="46.21342190735254" lon="10.165392366882468"><ele>425.99999999999994</ele><time>2026-05-04T05:55:27Z</time></trkpt><trkpt lat="46.21343627676221" lon="10.165487139489894"><ele>426.0</ele><time>2026-05-04T05:55:31Z</time></trkpt><trkpt lat="46.21345979402905" lon="10.165595232522477"><ele>426.0</ele><time>2026-05-04T05:55:37Z</time></trkpt><trkpt lat="46.21348447021637" lon="10.165684814760438"><ele>426.0</ele><time>2026-05-04T05:55:43Z</time></trkpt><trkpt lat="46.21350300263566" lon="10.1657790677502"><ele>426.0</ele><time>2026-05-04T05:55:48Z</time></trkpt><trkpt lat="46.21352439150128" lon="10.165867752108804"><ele>425.99999999999994</ele><time>2026-05-04T05:55:52Z</time></trkpt><trkpt lat="46.213550185490334" lon="10.165970782192518"><ele>426.0</ele><time>2026-05-04T05:55:59Z</time></trkpt><trkpt lat="46.21356640970249" lon="10.166072011170407"><ele>426.2857142857143</ele><time>2026-05-04T05:56:06Z</time></trkpt><trkpt lat="46.21360111455479" lon="10.166156344342218"><ele>426.57142857142856</ele><time>2026-05-04T05:56:11Z</time></trkpt><trkpt lat="46.21362954726785" lon="10.166270223483039"><ele>426.8571428571429</ele><time>2026-05-04T05:56:17Z</time></trkpt><trkpt lat="46.21366309235487" lon="10.166361257940865"><ele>427.1428571428571</ele><time>2026-05-04T05:56:23Z</time></trkpt><trkpt lat="46.213701344212296" lon="10.166451327014517"><ele>427.42857142857144</ele><time>2026-05-04T05:56:29Z</time></trkpt><trkpt lat="46.21371872016598" lon="10.166540301420437"><ele>427.7142857142857</ele><time>2026-05-04T05:56:34Z</time></trkpt><trkpt lat="46.2137497863393" lon="10.166626502007105"><ele>428.0</ele><time>2026-05-04T05:56:39Z</time></trkpt><trkpt lat="46.2137801047482" lon="10.166712957481186"><ele>428.00000000000006</ele><time>2026-05-04T05:56:45Z</time></trkpt><trkpt lat="46.213790626786675" lon="10.166835812580675"><ele>428.0</ele><time>2026-05-04T05:56:51Z</time></trkpt><trkpt lat="46.21380502219821" lon="10.166928939913323"><ele>428.0</ele><time>2026-05-04T05:56:57Z</time></trkpt><trkpt lat="46.21384358338661" lon="10.16700221387855"><ele>428.0</ele><time>2026-05-04T05:57:02Z</time></trkpt><trkpt lat="46.213859420949596" lon="10.167103196227352"><ele>428.0</ele><time>2026-05-04T05:57:08Z</time></trkpt><trkpt lat="46.213894432613515" lon="10.167202096281029"><ele>428.00000000000006</ele><time>2026-05-04T05:57:15Z</time></trkpt><trkpt lat="46.21391569859658" lon="10.167294917195173"><ele>428.0</ele><time>2026-05-04T05:57:19Z</time></trkpt><trkpt lat="46.21393134833383" lon="10.167403193396112"><ele>428.00000000000006</ele><time>2026-05-04T05:57:26Z</time></trkpt><trkpt lat="46.213936286771826" lon="10.16750238955031"><ele>428.0</ele><time>2026-05-04T05:57:30Z</time></trkpt><trkpt lat="46.21396585550213" lon="10.167598773627681"><ele>428.0</ele><time>2026-05-04T05:57:35Z</time></trkpt><trkpt lat="46.21398875257906" lon="10.167685076867228"><ele>428.0</ele><time>2026-05-04T05:57:40Z</time></trkpt><trkpt lat="46.214013956322326" lon="10.167779373182604"><ele>428.0</ele><time>2026-05-04T05:57:45Z</time></trkpt><trkpt lat="46.214023061455684" lon="10.167874558795834"><ele>428.00000000000006</ele><time>2026-05-04T05:57:50Z</time></trkpt><trkpt lat="46.21405159687431" lon="10.167969289477155"><ele>428.0</ele><time>2026-05-04T05:57:57Z</time></trkpt><trkpt lat="46.2140895544006" lon="10.168061274485279"><ele>428.14285714285717</ele><time>2026-05-04T05:58:02Z</time></trkpt><trkpt lat="46.21408687066006" lon="10.168157249175168"><ele>428.2857142857143</ele><time>2026-05-04T05:58:08Z</time></trkpt><trkpt lat="46.21411486081257" lon="10.16824691509146"><ele>428.42857142857144</ele><time>2026-05-04T05:58:13Z</time></trkpt><trkpt lat="46.21415969731176" lon="10.168337886245395"><ele>428.57142857142856</ele><time>2026-05-04T05:58:20Z</time></trkpt><trkpt lat="46.2141397634414" lon="10.168425841987867"><ele>428.7142857142857</ele><time>2026-05-04T05:58:26Z</time></trkpt><trkpt lat="46.21407355335059" lon="10.168391000918756"><ele>428.8571428571429</ele><time>2026-05-04T05:58:37Z</time></trkpt><trkpt lat="46.214007932478964" lon="10.168389138467218"><ele>429.0</ele><time>2026-05-04T05:58:40Z</time></trkpt><trkpt lat="46.213963252566096" lon="10.168324733916936"><ele>429.14285714285717</ele><time>2026-05-04T05:58:44Z</time></trkpt><trkpt lat="46.21392062042257" lon="10.168257437777031"><ele>429.28571428571433</ele><time>2026-05-04T05:58:49Z</time></trkpt><trkpt lat="46.21386685389435" lon="10.168200172764278"><ele>429.42857142857144</ele><time>2026-05-04T05:58:54Z</time></trkpt><trkpt lat="46.21381646241463" lon="10.168126569852713"><ele>429.57142857142856</ele><time>2026-05-04T05:59:01Z</time></trkpt><trkpt lat="46.21378408543749" lon="10.168044809060598"><ele>429.7142857142857</ele><time>2026-05-04T05:59:06Z</time></trkpt><trkpt lat="46.21374251079503" lon="10.167974451294784"><ele>429.85714285714283</ele><time>2026-05-04T05:59:12Z</time></trkpt><trkpt lat="46.21370743569782" lon="10.16789463187692"><ele>430.0</ele><time>2026-05-04T05:59:16Z</time></trkpt><trkpt lat="46.21365236227397" lon="10.167825610661176"><ele>429.6666666666667</ele><time>2026-05-04T05:59:22Z</time></trkpt><trkpt lat="46.213610201212866" lon="10.167727711632926"><ele>429.33333333333337</ele><time>2026-05-04T05:59:28Z</time></trkpt><trkpt lat="46.213552027826594" lon="10.167648045020233"><ele>429.0</ele><time>2026-05-04T05:59:34Z</time></trkpt><trkpt lat="46.213503288869035" lon="10.167568362375745"><ele>428.66666666666663</ele><time>2026-05-04T05:59:41Z</time></trkpt><trkpt lat="46.21345786940165" lon="10.16747696501637"><ele>428.3333333333333</ele><time>2026-05-04T05:59:47Z</time></trkpt><trkpt lat="46.2134171483968" lon="10.167392165552291"><ele>428.0</ele><time>2026-05-04T05:59:52Z</time></trkpt><trkpt lat="46.213366484611015" lon="10.1673270144698"><ele>427.99999999999994</ele><time>2026-05-04T05:59:57Z</time></trkpt><trkpt lat="46.21331858536959" lon="10.167255803830635"><ele>428.0</ele><time>2026-05-04T06:00:03Z</time></trkpt><trkpt lat="46.21326720092406" lon="10.16717232001271"><ele>428.0</ele><time>2026-05-04T06:00:09Z</time></trkpt><trkpt lat="46.21323542668183" lon="10.16706919469707"><ele>428.0</ele><time>2026-05-04T06:00:14Z</time></trkpt><trkpt lat="46.21318561236784" lon="10.166993542861178"><ele>427.99999999999994</ele><time>2026-05-04T06:00:20Z</time></trkpt><trkpt lat="46.21313511096518" lon="10.166919905145505"><ele>428.0</ele><time>2026-05-04T06:00:25Z</time></trkpt><trkpt lat="46.21308481218825" lon="10.166827058687634"><ele>427.8571428571429</ele><time>2026-05-04T06:00:31Z</time></trkpt><trkpt lat="46.21304372539631" lon="10.166754272101844"><ele>427.7142857142857</ele><time>2026-05-04T06:00:38Z</time></trkpt><trkpt lat="46.21300068481587" lon="10.166664139986603"><ele>427.57142857142856</ele><time>2026-05-04T06:00:44Z</time></trkpt><trkpt lat="46.212943092828894" lon="10.166582944874225"><ele>427.42857142857144</ele><time>2026-05-04T06:00:50Z</time></trkpt><trkpt lat="46.21290562337348" lon="10.16650587506816"><ele>427.2857142857143</ele><time>2026-05-04T06:00:55Z</time></trkpt><trkpt lat="46.21286121080716" lon="10.166437758862125"><ele>427.14285714285717</ele><time>2026-05-04T06:01:01Z</time></trkpt><trkpt lat="46.21282673189325" lon="10.166352248076295"><ele>427.0</ele><time>2026-05-04T06:01:06Z</time></trkpt><trkpt lat="46.21276500339991" lon="10.16629832428301"><ele>427.00000000000006</ele><time>2026-05-04T06:01:11Z</time></trkpt><trkpt lat="46.212718163948914" lon="10.166176423121684"><ele>427.0</ele><time>2026-05-04T06:01:18Z</time></trkpt><trkpt lat="46.212662478410174" lon="10.166099281871972"><ele>427.0</ele><time>2026-05-04T06:01:26Z</time></trkpt><trkpt lat="46.212623405696036" lon="10.166005332112109"><ele>427.0</ele><time>2026-05-04T06:01:31Z</time></trkpt><trkpt lat="46.212578830944736" lon="10.16592054544286"><ele>427.00000000000006</ele><time>2026-05-04T06:01:38Z</time></trkpt><trkpt lat="46.212519106104644" lon="10.165866333157389"><ele>427.0</ele><time>2026-05-04T06:01:47Z</time></trkpt><trkpt lat="46.21247340988428" lon="10.165778036992863"><ele>426.85714285714283</ele><time>2026-05-04T06:01:52Z</time></trkpt><trkpt lat="46.21244027212624" lon="10.165686507955602"><ele>426.7142857142857</ele><time>2026-05-04T06:01:57Z</time></trkpt><trkpt lat="46.21238196506105" lon="10.165621699225587"><ele>426.57142857142856</ele><time>2026-05-04T06:02:03Z</time></trkpt><trkpt lat="46.21234527633565" lon="10.165533794628354"><ele>426.42857142857144</ele><time>2026-05-04T06:02:08Z</time></trkpt><trkpt lat="46.21230471418328" lon="10.165454760679488"><ele>426.2857142857143</ele><time>2026-05-04T06:02:13Z</time></trkpt><trkpt lat="46.212256655220045" lon="10.165377375133659"><ele>426.1428571428571</ele><time>2026-05-04T06:02:18Z</time></trkpt><trkpt lat="46.21222195813549" lon="10.16530123956415"><ele>426.0</ele><time>2026-05-04T06:02:23Z</time></trkpt><trkpt lat="46.212175772143276" lon="10.165215223144362"><ele>425.99999999999994</ele><time>2026-05-04T06:02:28Z</time></trkpt><trkpt lat="46.212124807856696" lon="10.165147159969766"><ele>426.0</ele><time>2026-05-04T06:02:34Z</time></trkpt><trkpt lat="46.212087841311046" lon="10.16505448005267"><ele>426.0</ele><time>2026-05-04T06:02:40Z</time></trkpt><trkpt lat="46.21204646992651" lon="10.16497413513684"><ele>426.0</ele><time>2026-05-04T06:02:46Z</time></trkpt><trkpt lat="46.2120023946428" lon="10.164907350618858"><ele>426.0</ele><time>2026-05-04T06:02:51Z</time></trkpt><trkpt lat="46.21196997274194" lon="10.164824175579954"><ele>425.99999999999994</ele><time>2026-05-04T06:02:55Z</time></trkpt><trkpt lat="46.21192556387764" lon="10.16475570066335"><ele>426.0</ele><time>2026-05-04T06:03:00Z</time></trkpt><trkpt lat="46.211878568919644" lon="10.164664088604566"><ele>425.85714285714283</ele><time>2026-05-04T06:03:06Z</time></trkpt><trkpt lat="46.211813036568074" lon="10.164624180195808"><ele>425.7142857142857</ele><time>2026-05-04T06:03:13Z</time></trkpt><trkpt lat="46.21175840711367" lon="10.164564951346465"><ele>425.57142857142856</ele><time>2026-05-04T06:03:19Z</time></trkpt><trkpt lat="46.21172736693698" lon="10.164474318405283"><ele>425.42857142857144</ele><time>2026-05-04T06:03:24Z</time></trkpt><trkpt lat="46.211698409600835" lon="10.164377019036078"><ele>425.2857142857143</ele><time>2026-05-04T06:03:29Z</time></trkpt><trkpt lat="46.211642319464595" lon="10.164301544739654"><ele>425.1428571428571</ele><time>2026-05-04T06:03:34Z</time></trkpt><trkpt lat="46.2116018804125" lon="10.164207000508593"><ele>425.0</ele><time>2026-05-04T06:03:40Z</time></trkpt><trkpt lat="46.211563922154625" lon="10.16410958487652"><ele>425.0</ele><time>2026-05-04T06:03:46Z</time></trkpt><trkpt lat="46.21150735846283" lon="10.164027682668173"><ele>425.0</ele><time>2026-05-04T06:03:53Z</time></trkpt><trkpt lat="46.21144546549518" lon="10.163974320203831"><ele>425.0</ele><time>2026-05-04T06:03:58Z</time></trkpt><trkpt lat="46.21140078024056" lon="10.163892794050104"><ele>425.0</ele><time>2026-05-04T06:04:03Z</time></trkpt><trkpt lat="46.21136398812155" lon="10.163814757004003"><ele>425.0</ele><time>2026-05-04T06:04:08Z</time></trkpt><trkpt lat="46.21133415387635" lon="10.163728554174657"><ele>425.0</ele><time>2026-05-04T06:04:12Z</time></trkpt><trkpt lat="46.21129259616742" lon="10.163642543485341"><ele>425.0</ele><time>2026-05-04T06:04:18Z</time></trkpt><trkpt lat="46.21123887327978" lon="10.16358407620164"><ele>424.7142857142857</ele><time>2026-05-04T06:04:24Z</time></trkpt><trkpt lat="46.21119659657729" lon="10.163498664497501"><ele>424.42857142857144</ele><time>2026-05-04T06:04:29Z</time></trkpt><trkpt lat="46.211164028513785" lon="10.163406993276471"><ele>424.1428571428571</ele><time>2026-05-04T06:04:34Z</time></trkpt><trkpt lat="46.21111848116436" lon="10.163339852904288"><ele>423.8571428571429</ele><time>2026-05-04T06:04:39Z</time></trkpt><trkpt lat="46.21106910154094" lon="10.163260822785078"><ele>423.5714285714286</ele><time>2026-05-04T06:04:45Z</time></trkpt><trkpt lat="46.21102559420228" lon="10.16318959065788"><ele>423.2857142857143</ele><time>2026-05-04T06:04:50Z</time></trkpt><trkpt lat="46.210987637884216" lon="10.163111141956197"><ele>423.0</ele><time>2026-05-04T06:04:55Z</time></trkpt><trkpt lat="46.21095357273591" lon="10.163033833392795"><ele>423.0</ele><time>2026-05-04T06:05:00Z</time></trkpt><trkpt lat="46.21091217743925" lon="10.16295531965045"><ele>423.0</ele><time>2026-05-04T06:05:05Z</time></trkpt><trkpt lat="46.210860521396796" lon="10.162881809789774"><ele>423.0</ele><time>2026-05-04T06:05:10Z</time></trkpt><trkpt lat="46.21082394297004" lon="10.16280006749356"><ele>423.0</ele><time>2026-05-04T06:05:15Z</time></trkpt><trkpt lat="46.21076208596014" lon="10.162739083396"><ele>423.0</ele><time>2026-05-04T06:05:22Z</time></trkpt><trkpt lat="46.210722136369974" lon="10.162657528580127"><ele>423.0</ele><time>2026-05-04T06:05:27Z</time></trkpt><trkpt lat="46.21067863499689" lon="10.162582661578316"><ele>423.0</ele><time>2026-05-04T06:05:32Z</time></trkpt><trkpt lat="46.21062800810225" lon="10.162514289966165"><ele>422.85714285714283</ele><time>2026-05-04T06:05:38Z</time></trkpt><trkpt lat="46.210589557569115" lon="10.162438042478817"><ele>422.7142857142857</ele><time>2026-05-04T06:05:42Z</time></trkpt><trkpt lat="46.21058413626339" lon="10.16234162851854"><ele>422.57142857142856</ele><time>2026-05-04T06:05:46Z</time></trkpt><trkpt lat="46.21053362967694" lon="10.162270807726635"><ele>422.42857142857144</ele><time>2026-05-04T06:05:52Z</time></trkpt><trkpt lat="46.210473615823695" lon="10.162211742522791"><ele>422.28571428571433</ele><time>2026-05-04T06:05:58Z</time></trkpt><trkpt lat="46.21043094709536" lon="10.162139156388744"><ele>422.14285714285717</ele><time>2026-05-04T06:06:03Z</time></trkpt><trkpt lat="46.21037680470821" lon="10.16205846125165"><ele>422.0</ele><time>2026-05-04T06:06:09Z</time></trkpt><trkpt lat="46.210333124380064" lon="10.161990435958987"><ele>421.99999999999994</ele><time>2026-05-04T06:06:14Z</time></trkpt><trkpt lat="46.21029175513509" lon="10.161920265241207"><ele>422.0</ele><time>2026-05-04T06:06:18Z</time></trkpt><trkpt lat="46.21025038312044" lon="10.161831657151675"><ele>422.0</ele><time>2026-05-04T06:06:26Z</time></trkpt><trkpt lat="46.21019735512513" lon="10.161750583639162"><ele>422.0</ele><time>2026-05-04T06:06:32Z</time></trkpt><trkpt lat="46.210150244378205" lon="10.161672295884856"><ele>421.99999999999994</ele><time>2026-05-04T06:06:37Z</time></trkpt><trkpt lat="46.21011413964519" lon="10.161588535908146"><ele>422.0</ele><time>2026-05-04T06:06:42Z</time></trkpt><trkpt lat="46.210037206292924" lon="10.1615045893973"><ele>422.0</ele><time>2026-05-04T06:06:48Z</time></trkpt><trkpt lat="46.209987843297895" lon="10.161409989285229"><ele>422.0</ele><time>2026-05-04T06:06:59Z</time></trkpt><trkpt lat="46.209946836281084" lon="10.161324599345551"><ele>422.0</ele><time>2026-05-04T06:07:04Z</time></trkpt><trkpt lat="46.20990081339349" lon="10.161253153076386"><ele>422.0</ele><time>2026-05-04T06:07:09Z</time></trkpt><trkpt lat="46.20985789987378" lon="10.161173808130895"><ele>422.0</ele><time>2026-05-04T06:07:14Z</time></trkpt><trkpt lat="46.20981966507791" lon="10.16108071918978"><ele>422.0</ele><time>2026-05-04T06:07:19Z</time></trkpt><trkpt lat="46.20978165783242" lon="10.160992687621837"><ele>422.0</ele><time>2026-05-04T06:07:24Z</time></trkpt><trkpt lat="46.209742052676006" lon="10.160919904507592"><ele>421.8571428571429</ele><time>2026-05-04T06:07:28Z</time></trkpt><trkpt lat="46.20969603831547" lon="10.160841216693592"><ele>421.7142857142857</ele><time>2026-05-04T06:07:33Z</time></trkpt><trkpt lat="46.20965799491395" lon="10.160755394975977"><ele>421.57142857142856</ele><time>2026-05-04T06:07:38Z</time></trkpt><trkpt lat="46.20960403810447" lon="10.160686429749784"><ele>421.42857142857144</ele><time>2026-05-04T06:07:46Z</time></trkpt><trkpt lat="46.209576300556265" lon="10.160598662977316"><ele>421.2857142857143</ele><time>2026-05-04T06:07:51Z</time></trkpt><trkpt lat="46.209557817703654" lon="10.160509784159983"><ele>421.14285714285717</ele><time>2026-05-04T06:08:01Z</time></trkpt><trkpt lat="46.20958368195757" lon="10.160400563297891"><ele>421.0</ele><time>2026-05-04T06:08:06Z</time></trkpt><trkpt lat="46.20963320431157" lon="10.160326352081274"><ele>421.00000000000006</ele><time>2026-05-04T06:08:08Z</time></trkpt><trkpt lat="46.20967161951128" lon="10.16023398755281"><ele>421.0</ele><time>2026-05-04T06:08:13Z</time></trkpt><trkpt lat="46.209729422451815" lon="10.160183077319818"><ele>421.0</ele><time>2026-05-04T06:08:18Z</time></trkpt><trkpt lat="46.209787702985835" lon="10.160117591983443"><ele>421.0</ele><time>2026-05-04T06:08:24Z</time></trkpt><trkpt lat="46.209850210389355" lon="10.1600494235963"><ele>421.0</ele><time>2026-05-04T06:08:30Z</time></trkpt><trkpt lat="46.20991375715885" lon="10.16000477474127"><ele>421.00000000000006</ele><time>2026-05-04T06:08:35Z</time></trkpt><trkpt lat="46.20997096250814" lon="10.159961487536362"><ele>421.0</ele><time>2026-05-04T06:08:40Z</time></trkpt><trkpt lat="46.21002244232395" lon="10.159893953302424"><ele>421.14285714285717</ele><time>2026-05-04T06:08:46Z</time></trkpt><trkpt lat="46.21007478729626" lon="10.159825964397132"><ele>421.2857142857143</ele><time>2026-05-04T06:08:51Z</time></trkpt><trkpt lat="46.21011854092737" lon="10.159760199100965"><ele>421.42857142857144</ele><time>2026-05-04T06:08:58Z</time></trkpt><trkpt lat="46.21017804120562" lon="10.15971083750512"><ele>421.57142857142856</ele><time>2026-05-04T06:09:03Z</time></trkpt><trkpt lat="46.210234101222774" lon="10.159657143430797"><ele>421.7142857142857</ele><time>2026-05-04T06:09:08Z</time></trkpt><trkpt lat="46.21029757329989" lon="10.159630071093613"><ele>421.8571428571429</ele><time>2026-05-04T06:09:13Z</time></trkpt><trkpt lat="46.210348150600026" lon="10.159567380725159"><ele>422.0</ele><time>2026-05-04T06:09:20Z</time></trkpt><trkpt lat="46.21041344900589" lon="10.159500943821346"><ele>422.0</ele><time>2026-05-04T06:09:26Z</time></trkpt><trkpt lat="46.210471658586286" lon="10.159439242039912"><ele>422.0</ele><time>2026-05-04T06:09:33Z</time></trkpt><trkpt lat="46.210521093399855" lon="10.159376549674658"><ele>422.0</ele><time>2026-05-04T06:09:37Z</time></trkpt><trkpt lat="46.21057687319233" lon="10.159330172653085"><ele>422.0</ele><time>2026-05-04T06:09:42Z</time></trkpt><trkpt lat="46.21065404220603" lon="10.159286713987283"><ele>422.0</ele><time>2026-05-04T06:09:47Z</time></trkpt><trkpt lat="46.21071184175288" lon="10.159220716069294"><ele>422.0</ele><time>2026-05-04T06:10:01Z</time></trkpt><trkpt lat="46.21077425690942" lon="10.15915583514594"><ele>422.0</ele><time>2026-05-04T06:10:07Z</time></trkpt><trkpt lat="46.210828561680216" lon="10.159081904263747"><ele>421.8571428571429</ele><time>2026-05-04T06:10:12Z</time></trkpt><trkpt lat="46.21086903239962" lon="10.159003476356157"><ele>421.7142857142857</ele><time>2026-05-04T06:10:18Z</time></trkpt><trkpt lat="46.210934239646896" lon="10.159012238244369"><ele>421.57142857142856</ele><time>2026-05-04T06:10:22Z</time></trkpt><trkpt lat="46.21099851273595" lon="10.15903944874791"><ele>421.42857142857144</ele><time>2026-05-04T06:10:28Z</time></trkpt><trkpt lat="46.21105595055531" lon="10.159105611172297"><ele>421.2857142857143</ele><time>2026-05-04T06:10:32Z</time></trkpt><trkpt lat="46.21111512096496" lon="10.159063913823928"><ele>421.14285714285717</ele><time>2026-05-04T06:10:38Z</time></trkpt><trkpt lat="46.21116993510716" lon="10.159142819436196"><ele>421.0</ele><time>2026-05-04T06:10:45Z</time></trkpt><trkpt lat="46.211213664623195" lon="10.159220892379057"><ele>421.00000000000006</ele><time>2026-05-04T06:10:49Z</time></trkpt><trkpt lat="46.21126862892671" lon="10.15931812279798"><ele>421.0</ele><time>2026-05-04T06:10:54Z</time></trkpt><trkpt lat="46.211322636402144" lon="10.159375253279078"><ele>421.0</ele><time>2026-05-04T06:11:03Z</time></trkpt><trkpt lat="46.21138658191638" lon="10.15931731219483"><ele>421.0</ele><time>2026-05-04T06:11:11Z</time></trkpt><trkpt lat="46.21145036118215" lon="10.159272736391756"><ele>421.0</ele><time>2026-05-04T06:11:15Z</time></trkpt><trkpt lat="46.21151342605048" lon="10.159216862507337"><ele>421.00000000000006</ele><time>2026-05-04T06:11:21Z</time></trkpt><trkpt lat="46.211571234603056" lon="10.159173242247793"><ele>421.0</ele><time>2026-05-04T06:11:27Z</time></trkpt><trkpt lat="46.211619767530465" lon="10.15910701931812"><ele>421.00000000000006</ele><time>2026-05-04T06:11:33Z</time></trkpt><trkpt lat="46.21165876047859" lon="10.15901963876292"><ele>421.0</ele><time>2026-05-04T06:11:39Z</time></trkpt><trkpt lat="46.21172810214199" lon="10.159021315920914"><ele>421.0</ele><time>2026-05-04T06:11:43Z</time></trkpt><trkpt lat="46.211785019265605" lon="10.159075883642059"><ele>421.0</ele><time>2026-05-04T06:11:47Z</time></trkpt><trkpt lat="46.21183101167347" lon="10.159143494351579"><ele>421.0</ele><time>2026-05-04T06:11:52Z</time></trkpt><trkpt lat="46.211873725299576" lon="10.159215028649077"><ele>421.00000000000006</ele><time>2026-05-04T06:11:58Z</time></trkpt><trkpt lat="46.211907952087586" lon="10.15929288759067"><ele>421.0</ele><time>2026-05-04T06:12:03Z</time></trkpt><trkpt lat="46.21194539643946" lon="10.159368823940136"><ele>421.00000000000006</ele><time>2026-05-04T06:12:08Z</time></trkpt><trkpt lat="46.21196168146627" lon="10.159458404687168"><ele>421.0</ele><time>2026-05-04T06:12:14Z</time></trkpt><trkpt lat="46.21199052230769" lon="10.159549776054236"><ele>421.0</ele><time>2026-05-04T06:12:19Z</time></trkpt><trkpt lat="46.2120338699788" lon="10.159634231091761"><ele>421.0</ele><time>2026-05-04T06:12:25Z</time></trkpt><trkpt lat="46.21205884821823" lon="10.159721833068934"><ele>421.0</ele><time>2026-05-04T06:12:30Z</time></trkpt><trkpt lat="46.21208933816952" lon="10.159818321653244"><ele>421.00000000000006</ele><time>2026-05-04T06:12:36Z</time></trkpt><trkpt lat="46.21212322776681" lon="10.15990190710119"><ele>421.0</ele><time>2026-05-04T06:12:42Z</time></trkpt><trkpt lat="46.21215440737394" lon="10.159984839178142"><ele>421.14285714285717</ele><time>2026-05-04T06:12:47Z</time></trkpt><trkpt lat="46.212162547481306" lon="10.16007982200531"><ele>421.2857142857143</ele><time>2026-05-04T06:12:52Z</time></trkpt><trkpt lat="46.21218981552338" lon="10.160167987132205"><ele>421.42857142857144</ele><time>2026-05-04T06:12:58Z</time></trkpt><trkpt lat="46.212224447673606" lon="10.160258779750134"><ele>421.57142857142856</ele><time>2026-05-04T06:13:05Z</time></trkpt><trkpt lat="46.21224787081272" lon="10.160366674269902"><ele>421.7142857142857</ele><time>2026-05-04T06:13:11Z</time></trkpt><trkpt lat="46.21228496064466" lon="10.160453810790154"><ele>421.8571428571429</ele><time>2026-05-04T06:13:16Z</time></trkpt><trkpt lat="46.21233199593428" lon="10.160525593853931"><ele>422.0</ele><time>2026-05-04T06:13:21Z</time></trkpt><trkpt lat="46.21234378618396" lon="10.16062671662341"><ele>422.2857142857143</ele><time>2026-05-04T06:13:26Z</time></trkpt><trkpt lat="46.2123650749845" lon="10.160725509246804"><ele>422.57142857142856</ele><time>2026-05-04T06:13:32Z</time></trkpt><trkpt lat="46.21239736246049" lon="10.160807198061446"><ele>422.8571428571429</ele><time>2026-05-04T06:13:38Z</time></trkpt><trkpt lat="46.2124364872695" lon="10.160886234900683"><ele>423.1428571428571</ele><time>2026-05-04T06:13:43Z</time></trkpt><trkpt lat="46.212468171198786" lon="10.16096570284793"><ele>423.4285714285714</ele><time>2026-05-04T06:13:49Z</time></trkpt><trkpt lat="46.21250865819928" lon="10.161042460526529"><ele>423.7142857142857</ele><time>2026-05-04T06:13:54Z</time></trkpt><trkpt lat="46.21254858241069" lon="10.161135362712571"><ele>424.0</ele><time>2026-05-04T06:14:00Z</time></trkpt><trkpt lat="46.212590832689735" lon="10.161203330803437"><ele>424.0</ele><time>2026-05-04T06:14:05Z</time></trkpt><trkpt lat="46.21261843232379" lon="10.161285360940186"><ele>424.0</ele><time>2026-05-04T06:14:10Z</time></trkpt><trkpt lat="46.21262918910644" lon="10.161376803695044"><ele>424.0</ele><time>2026-05-04T06:14:16Z</time></trkpt><trkpt lat="46.21266008339568" lon="10.161457517363266"><ele>424.0</ele><time>2026-05-04T06:14:22Z</time></trkpt><trkpt lat="46.21266882410484" lon="10.16155370591552"><ele>424.0</ele><time>2026-05-04T06:14:26Z</time></trkpt><trkpt lat="46.2126892015536" lon="10.161651655721506"><ele>424.0</ele><time>2026-05-04T06:14:32Z</time></trkpt><trkpt lat="46.21271743834673" lon="10.161746215382589"><ele>424.0</ele><time>2026-05-04T06:14:38Z</time></trkpt><trkpt lat="46.21274589860332" lon="10.161845102263968"><ele>424.1666666666667</ele><time>2026-05-04T06:14:45Z</time></trkpt><trkpt lat="46.21280010262064" lon="10.161949037383055"><ele>424.33333333333337</ele><time>2026-05-04T06:14:52Z</time></trkpt><trkpt lat="46.21287422885974" lon="10.161950690290286"><ele>424.5</ele><time>2026-05-04T06:15:07Z</time></trkpt><trkpt lat="46.21293658853999" lon="10.161860960434048"><ele>424.66666666666663</ele><time>2026-05-04T06:15:11Z</time></trkpt><trkpt lat="46.212974845396204" lon="10.161783905774511"><ele>424.8333333333333</ele><time>2026-05-04T06:15:16Z</time></trkpt><trkpt lat="46.21302208475586" lon="10.16170403614386"><ele>425.0</ele><time>2026-05-04T06:15:21Z</time></trkpt><trkpt lat="46.21307344898048" lon="10.161649837466726"><ele>425.0</ele><time>2026-05-04T06:15:28Z</time></trkpt><trkpt lat="46.21311612059139" lon="10.161725657652294"><ele>425.0</ele><time>2026-05-04T06:15:39Z</time></trkpt><trkpt lat="46.21313985257247" lon="10.161824380911233"><ele>425.0</ele><time>2026-05-04T06:15:44Z</time></trkpt><trkpt lat="46.213163485098676" lon="10.161912830752756"><ele>425.0</ele><time>2026-05-04T06:15:47Z</time></trkpt><trkpt lat="46.2131684255369" lon="10.162013107704608"><ele>425.0</ele><time>2026-05-04T06:15:52Z</time></trkpt><trkpt lat="46.21317431834865" lon="10.162111179142773"><ele>425.0</ele><time>2026-05-04T06:15:58Z</time></trkpt><trkpt lat="46.21316387505558" lon="10.162216851543109"><ele>425.0</ele><time>2026-05-04T06:17:25Z</time></trkpt><trkpt lat="46.21316417152868" lon="10.16231145975804"><ele>425.0</ele><time>2026-05-04T06:17:31Z</time></trkpt><trkpt lat="46.213140173428684" lon="10.162417898547778"><ele>425.0</ele><time>2026-05-04T06:17:37Z</time></trkpt><trkpt lat="46.21316216686359" lon="10.16251944498087"><ele>425.0</ele><time>2026-05-04T06:17:44Z</time></trkpt><trkpt lat="46.213166841382915" lon="10.162618180382673"><ele>425.0</ele><time>2026-05-04T06:17:49Z</time></trkpt><trkpt lat="46.213140352389985" lon="10.162704596216441"><ele>425.0</ele><time>2026-05-04T06:17:53Z</time></trkpt><trkpt lat="46.21313687635445" lon="10.162805293974305"><ele>425.0</ele><time>2026-05-04T06:18:00Z</time></trkpt><trkpt lat="46.213148270709766" lon="10.162907101073648"><ele>425.0</ele><time>2026-05-04T06:18:04Z</time></trkpt><trkpt lat="46.21314837760082" lon="10.163006048489773"><ele>425.0</ele><time>2026-05-04T06:18:10Z</time></trkpt><trkpt lat="46.213153125296195" lon="10.163102150866152"><ele>425.0</ele><time>2026-05-04T06:18:15Z</time></trkpt><trkpt lat="46.2131468390293" lon="10.163198409991404"><ele>425.0</ele><time>2026-05-04T06:18:20Z</time></trkpt><trkpt lat="46.213148079502176" lon="10.163326476841757"><ele>425.0</ele><time>2026-05-04T06:18:26Z</time></trkpt><trkpt lat="46.21313089404264" lon="10.163427513243008"><ele>425.0</ele><time>2026-05-04T06:18:33Z</time></trkpt><trkpt lat="46.21313349348185" lon="10.163524991650343"><ele>425.0</ele><time>2026-05-04T06:18:39Z</time></trkpt><trkpt lat="46.21314867599533" lon="10.163646239803349"><ele>425.0</ele><time>2026-05-04T06:19:04Z</time></trkpt><trkpt lat="46.213116302364654" lon="10.163741908633037"><ele>425.1428571428571</ele><time>2026-05-04T06:19:18Z</time></trkpt><trkpt lat="46.21317094259422" lon="10.16381421817318"><ele>425.2857142857143</ele><time>2026-05-04T06:19:23Z</time></trkpt><trkpt lat="46.21311479293518" lon="10.1638639295707"><ele>425.42857142857144</ele><time>2026-05-04T06:19:27Z</time></trkpt><trkpt lat="46.21309031193729" lon="10.163771897466463"><ele>425.57142857142856</ele><time>2026-05-04T06:19:35Z</time></trkpt><trkpt lat="46.21301590212302" lon="10.1637137032151"><ele>425.7142857142857</ele><time>2026-05-04T06:19:39Z</time></trkpt><trkpt lat="46.21297243695588" lon="10.163630801113237"><ele>425.85714285714283</ele><time>2026-05-04T06:19:45Z</time></trkpt><trkpt lat="46.212918237154774" lon="10.163556359279184"><ele>426.0</ele><time>2026-05-04T06:19:51Z</time></trkpt><trkpt lat="46.21290528439205" lon="10.163450730329272"><ele>425.99999999999994</ele><time>2026-05-04T06:19:56Z</time></trkpt><trkpt lat="46.21287240945712" lon="10.163358210891172"><ele>426.0</ele><time>2026-05-04T06:20:02Z</time></trkpt><trkpt lat="46.2128422728522" lon="10.163277283057111"><ele>426.0</ele><time>2026-05-04T06:20:07Z</time></trkpt><trkpt lat="46.21281908687304" lon="10.163190356427057"><ele>426.0</ele><time>2026-05-04T06:20:12Z</time></trkpt><trkpt lat="46.21277392342764" lon="10.163094651170491"><ele>426.0</ele><time>2026-05-04T06:20:17Z</time></trkpt><trkpt lat="46.21274949671951" lon="10.162996343964435"><ele>425.99999999999994</ele><time>2026-05-04T06:20:23Z</time></trkpt><trkpt lat="46.21270253765956" lon="10.162915413533712"><ele>426.0</ele><time>2026-05-04T06:20:29Z</time></trkpt><trkpt lat="46.21268799488301" lon="10.162825570198137"><ele>425.85714285714283</ele><time>2026-05-04T06:20:33Z</time></trkpt><trkpt lat="46.21265195146249" lon="10.162737293230013"><ele>425.7142857142857</ele><time>2026-05-04T06:20:40Z</time></trkpt><trkpt lat="46.21259846595832" lon="10.162676151280621"><ele>425.57142857142856</ele><time>2026-05-04T06:20:46Z</time></trkpt><trkpt lat="46.2125512841729" lon="10.162592594201277"><ele>425.42857142857144</ele><time>2026-05-04T06:20:52Z</time></trkpt><trkpt lat="46.212524934563696" lon="10.162498902119388"><ele>425.2857142857143</ele><time>2026-05-04T06:20:55Z</time></trkpt><trkpt lat="46.212477962089395" lon="10.162398375396915"><ele>425.1428571428571</ele><time>2026-05-04T06:21:01Z</time></trkpt><trkpt lat="46.21246629412506" lon="10.1623023494482"><ele>425.0</ele><time>2026-05-04T06:21:06Z</time></trkpt><trkpt lat="46.21241539686885" lon="10.162238699999113"><ele>425.0</ele><time>2026-05-04T06:21:13Z</time></trkpt><trkpt lat="46.21237219751746" lon="10.162151549543001"><ele>425.0</ele><time>2026-05-04T06:21:18Z</time></trkpt><trkpt lat="46.21233892901623" lon="10.162062546290562"><ele>425.0</ele><time>2026-05-04T06:21:23Z</time></trkpt><trkpt lat="46.212322793454966" lon="10.161967737241815"><ele>425.0</ele><time>2026-05-04T06:21:28Z</time></trkpt><trkpt lat="46.212267864315656" lon="10.161903093133416"><ele>425.0</ele><time>2026-05-04T06:21:33Z</time></trkpt><trkpt lat="46.21223685547481" lon="10.161823494157096"><ele>425.0</ele><time>2026-05-04T06:21:37Z</time></trkpt><trkpt lat="46.212211566380944" lon="10.161726048700654"><ele>425.0</ele><time>2026-05-04T06:21:43Z</time></trkpt><trkpt lat="46.21217109755883" lon="10.161632153477884"><ele>424.57142857142856</ele><time>2026-05-04T06:21:49Z</time></trkpt><trkpt lat="46.21213678862331" lon="10.161523991863186"><ele>424.1428571428571</ele><time>2026-05-04T06:21:55Z</time></trkpt><trkpt lat="46.212127946100765" lon="10.161427715910698"><ele>423.7142857142857</ele><time>2026-05-04T06:22:00Z</time></trkpt><trkpt lat="46.21207353974548" lon="10.161363115144395"><ele>423.2857142857143</ele><time>2026-05-04T06:22:06Z</time></trkpt><trkpt lat="46.21205165315746" lon="10.161272894995323"><ele>422.8571428571429</ele><time>2026-05-04T06:22:10Z</time></trkpt><trkpt lat="46.21201735686971" lon="10.161183702058894"><ele>422.42857142857144</ele><time>2026-05-04T06:22:15Z</time></trkpt><trkpt lat="46.211975179408135" lon="10.161105366929633"><ele>422.0</ele><time>2026-05-04T06:22:20Z</time></trkpt><trkpt lat="46.21193783735678" lon="10.161014726015267"><ele>422.0</ele><time>2026-05-04T06:22:26Z</time></trkpt><trkpt lat="46.211925365415254" lon="10.160924008687406"><ele>422.0</ele><time>2026-05-04T06:22:31Z</time></trkpt><trkpt lat="46.211878081255634" lon="10.16085326802918"><ele>422.0</ele><time>2026-05-04T06:22:37Z</time></trkpt><trkpt lat="46.21184104441493" lon="10.160746362365389"><ele>422.0</ele><time>2026-05-04T06:22:42Z</time></trkpt><trkpt lat="46.21178918670438" lon="10.160673227801041"><ele>422.0</ele><time>2026-05-04T06:22:48Z</time></trkpt><trkpt lat="46.21175648920433" lon="10.160584921872038"><ele>422.0</ele><time>2026-05-04T06:22:54Z</time></trkpt><trkpt lat="46.21173131593196" lon="10.160500402611643"><ele>422.0</ele><time>2026-05-04T06:22:59Z</time></trkpt></trkseg></trk></gpx>